createdAt,value
2023-06-30T00:04:43.692Z,4.53
2023-06-30T00:14:47.878Z,4.53
2023-06-30T00:19:52.028Z,4.67
2023-06-30T00:24:57.295Z,4.20
2023-06-30T00:29:59.768Z,4.60
2023-06-30T00:40:04.454Z,4.63
2023-06-30T00:45:07.605Z,5.53
2023-06-30T00:50:09.854Z,5.10
2023-06-30T00:55:13.495Z,5.90
2023-06-30T01:00:16.542Z,6.15
2023-06-30T01:10:30.479Z,6.35
2023-06-30T01:15:33.554Z,6.07
2023-06-30T01:20:41.132Z,6.72
2023-06-30T01:25:44.158Z,6.93
2023-06-30T01:30:47.317Z,6.63
2023-06-30T01:35:49.326Z,7.10
2023-06-30T01:40:51.541Z,6.43
2023-06-30T01:45:55.736Z,7.50
2023-06-30T01:50:58.817Z,7.03
2023-06-30T01:56:00.799Z,7.32
2023-06-30T02:01:03.375Z,7.85
2023-06-30T02:06:05.325Z,8.17
2023-06-30T02:11:07.109Z,7.33
2023-06-30T02:16:09.102Z,7.35
2023-06-30T02:21:10.844Z,7.60
2023-06-30T02:26:12.613Z,7.00
2023-06-30T02:31:14.435Z,7.27
2023-06-30T02:36:16.155Z,6.73
2023-06-30T02:41:18.078Z,7.30
2023-06-30T02:46:20.017Z,7.13
2023-06-30T02:51:21.966Z,6.85
2023-06-30T02:56:23.781Z,6.60
2023-06-30T03:01:26.188Z,7.05
2023-06-30T03:06:28.140Z,7.20
2023-06-30T03:11:30.062Z,7.83
2023-06-30T03:16:33.415Z,7.32
2023-06-30T03:21:35.938Z,7.53
2023-06-30T03:26:37.867Z,7.67
2023-06-30T03:31:50.030Z,7.90
2023-06-30T03:36:52.320Z,7.40
2023-06-30T03:41:56.063Z,6.95
2023-06-30T03:46:58.119Z,7.00
2023-06-30T03:52:00.333Z,7.18
2023-06-30T03:57:02.091Z,5.68
2023-06-30T04:02:04.788Z,7.63
2023-06-30T04:07:06.849Z,7.22
2023-06-30T04:12:09.640Z,6.45
2023-06-30T04:22:13.079Z,8.15
2023-06-30T04:27:14.797Z,8.67
2023-06-30T04:32:16.537Z,7.60
2023-06-30T04:37:18.458Z,9.57
2023-06-30T04:42:20.183Z,9.07
2023-06-30T04:47:22.211Z,8.63
2023-06-30T04:52:24.001Z,9.13
2023-06-30T04:57:27.512Z,10.30
